createdAt,value
2023-01-22T00:03:24.666Z,79.18
2023-01-22T00:08:31.370Z,78.88
2023-01-22T00:13:40.753Z,79.27
2023-01-22T00:18:52.251Z,78.06
2023-01-22T00:24:05.579Z,78.32
2023-01-22T00:29:16.594Z,79.18
2023-01-22T00:34:37.907Z,78.36
2023-01-22T00:39:44.209Z,77.61
2023-01-22T00:44:57.321Z,77.42
2023-01-22T00:50:13.576Z,78.04
2023-01-22T00:55:35.833Z,77.01
2023-01-22T01:00:48.179Z,76.81
2023-01-22T01:06:06.300Z,76.30
2023-01-22T01:11:24.578Z,75.55
2023-01-22T01:16:42.915Z,75.27
2023-01-22T01:21:55.209Z,74.76
2023-01-22T01:27:05.324Z,73.63
2023-01-22T01:32:20.492Z,73.98
2023-01-22T01:37:27.680Z,73.40
2023-01-22T01:42:37.920Z,73.93
2023-01-22T01:47:44.140Z,73.91
2023-01-22T01:52:51.336Z,73.15
2023-01-22T01:57:58.702Z,73.90
2023-01-22T02:03:11.136Z,73.63
2023-01-22T02:08:24.971Z,73.22
2023-01-22T02:13:36.210Z,72.50
2023-01-22T02:18:46.418Z,71.86
2023-01-22T02:23:59.645Z,72.71
2023-01-22T02:29:08.836Z,72.39
2023-01-22T02:34:19.382Z,72.38
2023-01-22T02:39:43.148Z,74.24
2023-01-22T02:44:57.151Z,73.84
2023-01-22T02:50:04.745Z,74.08
2023-01-22T02:55:21.978Z,73.72
2023-01-22T03:00:34.323Z,73.46
2023-01-22T03:05:43.463Z,73.79
2023-01-22T03:10:54.820Z,73.38
2023-01-22T03:16:19.009Z,72.32
2023-01-22T03:21:27.209Z,72.57
2023-01-22T03:26:37.447Z,71.44
2023-01-22T03:31:49.760Z,72.23
2023-01-22T03:37:17.932Z,71.31
2023-01-22T03:42:31.798Z,69.06
2023-01-22T03:47:36.377Z,68.46
2023-01-22T03:52:45.576Z,67.42
2023-01-22T03:57:54.692Z,68.25
2023-01-22T04:02:58.954Z,67.44
2023-01-22T04:08:08.053Z,65.26
2023-01-22T04:13:15.414Z,63.94
2023-01-22T04:18:21.643Z,61.85
2023-01-22T04:23:29.845Z,61.99
2023-01-22T04:28:37.001Z,60.43
2023-01-22T04:33:44.213Z,58.47
2023-01-22T04:38:50.392Z,58.71
2023-01-22T04:44:00.646Z,58.20
2023-01-22T04:49:05.824Z,58.42
2023-01-22T04:54:10.050Z,57.81
2023-01-22T04:59:21.302Z,57.72
2023-01-22T05:04:27.264Z,58.33
2023-01-22T05:09:33.687Z,58.80
2023-01-22T05:14:42.779Z,58.31
2023-01-22T05:19:46.985Z,57.65
2023-01-22T05:24:53.175Z,57.92
2023-01-22T05:30:05.396Z,57.14
2023-01-22T05:35:10.621Z,58.60
2023-01-22T05:40:15.158Z,58.44
2023-01-22T05:45:22.977Z,57.54
2023-01-22T05:50:27.202Z,57.92
2023-01-22T05:55:32.367Z,58.76
2023-01-22T06:00:38.560Z,58.46
2023-01-22T06:05:42.785Z,58.54
2023-01-22T06:10:46.967Z,58.52
2023-01-22T06:15:58.217Z,58.81
2023-01-22T06:21:03.424Z,58.76
2023-01-22T06:26:08.582Z,58.75
2023-01-22T06:31:17.626Z,59.35
2023-01-22T06:36:21.970Z,58.88
2023-01-22T06:41:29.179Z,59.84
2023-01-22T06:46:40.425Z,59.58
2023-01-22T06:51:49.837Z,59.89
2023-01-22T06:56:56.689Z,60.09
2023-01-22T07:02:07.015Z,59.32
2023-01-22T07:07:11.272Z,60.35
2023-01-22T07:12:16.400Z,60.15
2023-01-22T07:17:23.579Z,61.08
2023-01-22T07:22:27.779Z,61.72
2023-01-22T07:27:32.967Z,61.92
2023-01-22T07:32:39.182Z,61.67
2023-01-22T07:37:43.362Z,61.81
2023-01-22T07:48:27.832Z,61.49
2023-01-22T07:53:32.075Z,61.51
2023-01-22T07:58:36.284Z,61.68
2023-01-22T08:03:50.513Z,61.62
2023-01-22T08:08:54.314Z,62.10
2023-01-22T08:13:59.029Z,62.22
2023-01-22T08:19:09.090Z,61.99
2023-01-22T08:24:14.394Z,62.22
2023-01-22T08:29:31.069Z,62.29
2023-01-22T08:34:43.024Z,61.45
2023-01-22T08:39:49.039Z,61.42
2023-01-22T08:44:53.116Z,60.83
2023-01-22T08:49:59.308Z,60.82
2023-01-22T08:55:21.413Z,59.77
2023-01-22T09:00:49.266Z,59.29
2023-01-22T09:12:56.288Z,58.85
2023-01-22T09:25:50.328Z,58.79
2023-01-22T09:31:30.114Z,57.60
2023-01-22T09:37:16.005Z,57.89
2023-01-22T10:08:09.570Z,55.66
2023-01-22T10:32:04.912Z,53.43
2023-01-22T11:54:09.104Z,49.69
2023-01-22T11:59:32.891Z,49.11
2023-01-22T12:05:06.218Z,47.55
2023-01-22T12:10:42.518Z,48.98
2023-01-22T12:16:05.571Z,49.51
2023-01-22T12:21:25.909Z,48.72
2023-01-22T12:26:46.613Z,48.39
2023-01-22T12:32:01.527Z,47.57
2023-01-22T12:37:08.672Z,46.62
2023-01-22T12:42:28.932Z,46.87
2023-01-22T12:47:43.161Z,46.37
2023-01-22T12:52:48.951Z,46.29
2023-01-22T12:58:01.914Z,45.12
2023-01-22T13:03:33.454Z,45.56
2023-01-22T13:08:42.152Z,44.83
2023-01-22T13:13:58.563Z,45.18
2023-01-22T13:19:22.577Z,43.57
2023-01-22T13:24:27.773Z,43.23
2023-01-22T13:29:34.952Z,42.75
2023-01-22T13:34:38.336Z,41.22
2023-01-22T13:39:41.604Z,41.51
2023-01-22T13:44:51.600Z,38.29
2023-01-22T13:49:55.407Z,37.34
2023-01-22T13:55:06.003Z,35.11
2023-01-22T14:00:29.378Z,31.90
2023-01-22T14:05:35.555Z,31.47
2023-01-22T14:10:41.781Z,30.95
2023-01-22T14:15:58.924Z,30.61
2023-01-22T14:21:03.126Z,31.67
2023-01-22T14:26:09.276Z,32.56
2023-01-22T14:31:27.583Z,31.58
2023-01-22T14:36:31.780Z,30.97
2023-01-22T14:41:35.215Z,30.54
2023-01-22T14:46:44.140Z,30.18
2023-01-22T14:51:48.445Z,29.32
2023-01-22T14:56:59.688Z,29.37
2023-01-22T15:02:06.808Z,28.33
2023-01-22T15:13:47.618Z,29.09
2023-01-22T15:42:41.185Z,28.91
2023-01-22T15:47:45.637Z,28.41
2023-01-22T15:52:53.829Z,28.27
2023-01-22T16:17:01.812Z,33.37
2023-01-22T16:28:13.115Z,33.09
2023-01-22T16:39:06.661Z,34.30
2023-01-22T16:44:22.562Z,35.49
2023-01-22T16:49:43.129Z,34.17
2023-01-22T16:55:01.696Z,34.72
2023-01-22T17:00:18.987Z,34.41
2023-01-22T17:05:22.431Z,35.04
2023-01-22T17:10:25.548Z,36.59
2023-01-22T17:15:30.537Z,36.91
2023-01-22T17:20:33.600Z,38.94
2023-01-22T17:25:40.717Z,38.53
2023-01-22T17:30:45.396Z,38.58
2023-01-22T17:35:48.953Z,39.76
2023-01-22T17:40:52.257Z,40.30
2023-01-22T17:45:56.908Z,41.21
2023-01-22T17:51:04.872Z,42.44
2023-01-22T17:56:10.389Z,42.57
2023-01-22T18:01:16.473Z,42.73
2023-01-22T18:06:20.581Z,43.57
2023-01-22T18:11:28.020Z,43.05
2023-01-22T18:16:36.489Z,43.21
2023-01-22T18:21:40.670Z,44.40
2023-01-22T18:26:44.165Z,45.49
2023-01-22T18:31:48.757Z,45.72
2023-01-22T18:36:51.996Z,45.78
2023-01-22T18:41:55.635Z,47.35
2023-01-22T18:47:01.888Z,48.34
2023-01-22T18:52:05.194Z,48.65
2023-01-22T18:57:08.364Z,48.47
2023-01-22T19:02:16.347Z,48.74
2023-01-22T19:07:19.553Z,47.42
2023-01-22T19:12:22.729Z,47.21
2023-01-22T19:17:27.372Z,47.80
2023-01-22T19:22:30.734Z,47.56
2023-01-22T19:27:34.551Z,48.51
2023-01-22T19:32:39.394Z,48.15
2023-01-22T19:37:42.663Z,48.07
2023-01-22T19:42:47.024Z,47.38
2023-01-22T19:47:51.675Z,48.30
2023-01-22T19:52:54.846Z,50.72
2023-01-22T19:57:58.233Z,51.27
2023-01-22T20:03:06.841Z,51.31
2023-01-22T20:08:11.239Z,53.76
2023-01-22T20:13:14.731Z,55.19
2023-01-22T20:18:19.801Z,56.66
2023-01-22T20:23:23.303Z,56.83
2023-01-22T20:28:26.556Z,57.56
2023-01-22T20:33:31.494Z,56.95
2023-01-22T20:38:35.603Z,56.91
2023-01-22T20:43:40.454Z,56.96
2023-01-22T20:48:46.033Z,57.57
2023-01-22T20:53:50.822Z,56.96
2023-01-22T20:58:57.426Z,56.79
2023-01-22T21:04:02.931Z,55.91
2023-01-22T21:09:07.752Z,55.70
2023-01-22T21:14:16.052Z,56.48
2023-01-22T21:19:23.795Z,57.40
2023-01-22T21:24:27.467Z,57.34
2023-01-22T21:29:30.665Z,58.01
2023-01-22T21:34:36.520Z,58.40
2023-01-22T21:39:45.125Z,57.60
2023-01-22T21:45:05.891Z,57.30
2023-01-22T21:50:12.083Z,58.45
2023-01-22T21:55:15.858Z,57.49
2023-01-22T22:00:20.389Z,57.94
2023-01-22T22:05:25.396Z,59.53
2023-01-22T22:10:28.658Z,59.37
2023-01-22T22:15:31.903Z,59.60
2023-01-22T22:20:37.589Z,60.09
2023-01-22T22:25:40.838Z,59.81
2023-01-22T22:30:44.105Z,60.81
2023-01-22T22:35:49.160Z,60.92
2023-01-22T22:41:03.881Z,60.69
2023-01-22T22:46:09.308Z,61.08
2023-01-22T22:51:15.930Z,62.66
2023-01-22T22:56:19.201Z,63.62
2023-01-22T23:01:25.215Z,65.42
2023-01-22T23:06:32.743Z,65.49
2023-01-22T23:11:36.731Z,64.99
2023-01-22T23:16:41.631Z,65.17
2023-01-22T23:21:46.703Z,65.69
2023-01-22T23:26:50.797Z,65.57
2023-01-22T23:31:54.308Z,66.69
2023-01-22T23:36:59.018Z,66.50
2023-01-22T23:42:02.162Z,66.50
2023-01-22T23:47:05.549Z,66.24
2023-01-22T23:52:10.211Z,67.15
2023-01-22T23:57:13.410Z,65.26
